Time;durP1;ratioP1;P1;durP2;ratioP2;P2;SDS_P1;SDS_P2;PMS_P1;PMS_P2;Temp;Humidity;BMP_temperature;BMP_pressure;BME280_temperature;BME280_humidity;BME280_pressure;Samples;Min_cycle;Max_cycle;Signal;HPM_P1;HPM_P2
2021/11/24 00:04:27;;;;;;;21.07;9.10;;;;;;;;;;6183670;22;20211;-91
2021/11/24 00:07:41;;;;;;;28.10;10.33;;;;;;;;;;6250235;23;20154;-92
2021/11/24 00:10:52;;;;;;;23.93;10.17;;;;;;;;;;6247718;23;20166;-91
2021/11/24 00:14:04;;;;;;;24.07;10.03;;;;;;;;;;6247650;23;20553;-89
2021/11/24 00:17:17;;;;;;;23.60;10.33;;;;;;;;;;6247101;23;20167;-91
2021/11/24 00:20:31;;;;;;;22.03;9.93;;;;;;;;;;6244227;23;20165;-90
2021/11/24 00:23:42;;;;;;;24.03;10.13;;;;;;;;;;6245641;23;20226;-89
2021/11/24 00:26:54;;;;;;;21.73;10.03;;;;;;;;;;6246355;23;20221;-90
2021/11/24 00:30:08;;;;;;;23.40;10.93;;;;;;;;;;6246928;23;20299;-91
2021/11/24 00:33:19;;;;;;;23.10;10.50;;;;;;;;;;6246168;23;20229;-90
2021/11/24 00:36:46;;;;;;;24.73;10.23;;;;;;;;;;6255743;22;20191;-89
2021/11/24 00:40:01;;;;;;;22.20;9.63;;;;;;;;;;6246493;23;20178;-91
2021/11/24 00:43:13;;;;;;;23.63;11.10;;;;;;;;;;6244856;23;20221;-92
2021/11/24 00:46:25;;;;;;;28.77;10.90;;;;;;;;;;6245265;23;20174;-89
2021/11/24 00:49:39;;;;;;;25.43;10.90;;;;;;;;;;6246812;23;20174;-91
2021/11/24 00:52:51;;;;;;;28.00;10.43;;;;;;;;;;6245649;23;20170;-91
2021/11/24 00:56:04;;;;;;;31.17;10.97;;;;;;;;;;6245433;22;20183;-92
2021/11/24 00:59:17;;;;;;;31.63;10.90;;;;;;;;;;6245109;22;20215;-91
2021/11/24 01:02:28;;;;;;;24.33;11.63;;;;;;;;;;6243971;23;20213;-90
2021/11/24 01:05:44;;;;;;;24.07;10.60;;;;;;;;;;6245669;23;20194;-91
2021/11/24 01:08:56;;;;;;;28.07;10.30;;;;;;;;;;6244179;23;20221;-91
2021/11/24 01:12:10;;;;;;;26.57;9.87;;;;;;;;;;6245627;23;20253;-92
2021/11/24 01:15:22;;;;;;;49.53;10.97;;;;;;;;;;6244667;23;20170;-90
2021/11/24 01:18:35;;;;;;;30.70;10.63;;;;;;;;;;6245698;23;20182;-90
2021/11/24 01:21:48;;;;;;;76.67;13.07;;;;;;;;;;6246263;23;20174;-92
2021/11/24 01:24:59;;;;;;;33.17;11.13;;;;;;;;;;6245237;22;20239;-90
2021/11/24 01:28:13;;;;;;;32.20;11.47;;;;;;;;;;6245013;22;20166;-89
2021/11/24 01:31:24;;;;;;;35.33;11.33;;;;;;;;;;6245772;23;20217;-92
2021/11/24 01:34:35;;;;;;;33.27;11.30;;;;;;;;;;6245503;23;20174;-91
2021/11/24 01:37:48;;;;;;;76.77;12.73;;;;;;;;;;6244687;23;20173;-88
2021/11/24 01:40:59;;;;;;;59.67;11.17;;;;;;;;;;6244688;23;20163;-90
2021/11/24 01:44:21;;;;;;;42.77;11.27;;;;;;;;;;6245667;22;20206;-90
2021/11/24 01:47:33;;;;;;;33.00;11.33;;;;;;;;;;6247509;23;20185;-91
2021/11/24 01:50:46;;;;;;;34.87;11.23;;;;;;;;;;6246780;23;20171;-91
2021/11/24 01:53:57;;;;;;;26.33;10.57;;;;;;;;;;6247217;23;20237;-89
2021/11/24 01:57:09;;;;;;;58.00;11.70;;;;;;;;;;6247264;23;20162;-90
2021/11/24 02:00:25;;;;;;;39.27;11.30;;;;;;;;;;6247607;23;20998;-91
2021/11/24 02:03:37;;;;;;;44.17;11.10;;;;;;;;;;6248691;23;20243;-92
2021/11/24 02:06:50;;;;;;;62.77;11.90;;;;;;;;;;6248102;22;20246;-90
2021/11/24 02:10:01;;;;;;;34.43;10.87;;;;;;;;;;6248309;23;20174;-90
2021/11/24 02:13:14;;;;;;;38.90;10.90;;;;;;;;;;6247294;23;20170;-90
2021/11/24 02:16:27;;;;;;;31.83;11.23;;;;;;;;;;6246862;22;20583;-90
2021/11/24 02:19:40;;;;;;;25.30;10.83;;;;;;;;;;6248949;23;20242;-91
2021/11/24 02:22:53;;;;;;;35.50;10.97;;;;;;;;;;6248342;23;20207;-90
2021/11/24 02:26:07;;;;;;;33.33;10.30;;;;;;;;;;6247528;23;20186;-89
2021/11/24 02:29:18;;;;;;;41.40;10.97;;;;;;;;;;6245799;23;20171;-90
2021/11/24 02:32:30;;;;;;;39.90;11.20;;;;;;;;;;6246494;23;20166;-89
2021/11/24 02:35:43;;;;;;;45.37;11.10;;;;;;;;;;6244805;23;20172;-93
2021/11/24 02:38:59;;;;;;;45.40;10.90;;;;;;;;;;6245026;23;20170;-91
2021/11/24 02:42:10;;;;;;;31.87;10.37;;;;;;;;;;6247403;22;20182;-90
2021/11/24 02:45:22;;;;;;;36.77;9.70;;;;;;;;;;6246645;23;20281;-90
2021/11/24 02:48:35;;;;;;;26.00;10.50;;;;;;;;;;6245445;23;20229;-91
2021/11/24 02:51:46;;;;;;;25.07;10.60;;;;;;;;;;6245956;23;20174;-91
2021/11/24 02:55:01;;;;;;;46.30;11.33;;;;;;;;;;6245442;23;20171;-89
2021/11/24 02:58:12;;;;;;;35.63;10.57;;;;;;;;;;6244820;23;20167;-90
2021/11/24 03:01:24;;;;;;;27.17;9.87;;;;;;;;;;6244778;23;20182;-89
2021/11/24 03:04:37;;;;;;;27.40;9.67;;;;;;;;;;6247369;23;20214;-90
2021/11/24 03:07:50;;;;;;;40.83;10.33;;;;;;;;;;6244318;23;20174;-92
2021/11/24 03:11:05;;;;;;;38.60;10.03;;;;;;;;;;6244585;23;20254;-91
2021/11/24 03:14:16;;;;;;;34.73;10.43;;;;;;;;;;6244164;23;20173;-92
2021/11/24 03:17:28;;;;;;;27.70;11.50;;;;;;;;;;6243725;23;20186;-90
2021/11/24 03:20:40;;;;;;;33.20;9.63;;;;;;;;;;6244997;23;20171;-92
2021/11/24 03:23:52;;;;;;;31.47;10.97;;;;;;;;;;6244856;23;20170;-90
2021/11/24 03:27:05;;;;;;;32.60;10.27;;;;;;;;;;6243480;23;20580;-89
2021/11/24 03:30:18;;;;;;;40.33;10.00;;;;;;;;;;6243309;22;20163;-91
2021/11/24 03:33:29;;;;;;;30.93;10.83;;;;;;;;;;6245931;23;20214;-91
2021/11/24 03:36:41;;;;;;;60.40;10.67;;;;;;;;;;6243269;23;20182;-92
2021/11/24 03:39:53;;;;;;;29.47;9.63;;;;;;;;;;6245225;23;20611;-92
2021/11/24 03:43:07;;;;;;;23.10;10.17;;;;;;;;;;6243573;23;20601;-91
2021/11/24 03:46:19;;;;;;;33.47;9.87;;;;;;;;;;6243637;22;20218;-89
2021/11/24 03:49:31;;;;;;;24.53;9.70;;;;;;;;;;6244708;22;20170;-91
2021/11/24 03:52:44;;;;;;;31.00;9.70;;;;;;;;;;6245035;23;20179;-92
2021/11/24 03:55:57;;;;;;;21.07;9.43;;;;;;;;;;6244270;23;20175;-90
2021/11/24 03:59:10;;;;;;;21.10;9.20;;;;;;;;;;6243798;22;20281;-90
2021/11/24 04:02:21;;;;;;;22.23;8.87;;;;;;;;;;6246293;22;20247;-91
2021/11/24 04:05:32;;;;;;;26.50;10.10;;;;;;;;;;6244056;23;20308;-91
2021/11/24 04:08:44;;;;;;;24.37;9.97;;;;;;;;;;6244739;23;20146;-92
2021/11/24 04:11:57;;;;;;;29.57;10.00;;;;;;;;;;6244676;22;20178;-90
2021/11/24 04:15:12;;;;;;;22.60;10.13;;;;;;;;;;6243284;23;20221;-90
2021/11/24 04:18:23;;;;;;;33.30;11.87;;;;;;;;;;6244665;22;20170;-92
2021/11/24 04:21:35;;;;;;;52.63;10.60;;;;;;;;;;6245120;23;20186;-92
2021/11/24 04:24:47;;;;;;;34.07;9.93;;;;;;;;;;6244302;23;20567;-92
2021/11/24 04:28:02;;;;;;;25.53;9.37;;;;;;;;;;6244386;23;20238;-90
2021/11/24 04:31:16;;;;;;;54.70;10.90;;;;;;;;;;6244341;22;20231;-89
2021/11/24 04:34:30;;;;;;;21.87;9.63;;;;;;;;;;6246114;23;20170;-93
2021/11/24 04:37:41;;;;;;;27.63;9.87;;;;;;;;;;6244901;23;20219;-92
2021/11/24 04:40:53;;;;;;;22.80;9.17;;;;;;;;;;6245351;23;20205;-90
2021/11/24 04:44:06;;;;;;;22.10;9.23;;;;;;;;;;6246158;22;20169;-90
2021/11/24 04:47:19;;;;;;;21.23;9.23;;;;;;;;;;6245428;23;20174;-92
2021/11/24 04:50:31;;;;;;;21.87;8.43;;;;;;;;;;6245378;23;20225;-91
2021/11/24 04:53:43;;;;;;;18.90;7.90;;;;;;;;;;6244761;23;20170;-92
2021/11/24 04:56:55;;;;;;;15.83;8.20;;;;;;;;;;6244057;23;20159;-91
2021/11/24 05:00:10;;;;;;;21.97;9.07;;;;;;;;;;6243017;23;20185;-92
2021/11/24 05:07:55;;;;;;;25.40;8.83;;;;;;;;;;6262588;22;20209;-91
2021/11/24 05:11:07;;;;;;;17.03;8.00;;;;;;;;;;6244976;22;20247;-90
2021/11/24 05:14:23;;;;;;;16.43;8.00;;;;;;;;;;6244746;23;20170;-91
2021/11/24 05:17:35;;;;;;;23.97;9.30;;;;;;;;;;6245758;23;20181;-92
2021/11/24 05:20:48;;;;;;;19.63;8.83;;;;;;;;;;6245332;23;20178;-92
2021/11/24 05:24:03;;;;;;;21.23;8.07;;;;;;;;;;6245446;23;20170;-90
2021/11/24 05:27:16;;;;;;;19.93;8.83;;;;;;;;;;6246171;22;20239;-89
2021/11/24 05:30:28;;;;;;;26.43;9.33;;;;;;;;;;6246151;22;20235;-88
2021/11/24 05:33:42;;;;;;;20.53;8.27;;;;;;;;;;6246301;23;20170;-92
2021/11/24 05:36:55;;;;;;;19.83;8.60;;;;;;;;;;6247492;23;20175;-89
2021/11/24 05:40:09;;;;;;;23.70;8.70;;;;;;;;;;6248350;23;20154;-91
2021/11/24 05:43:25;;;;;;;17.50;8.33;;;;;;;;;;6247413;22;20187;-91
2021/11/24 05:46:43;;;;;;;17.23;8.10;;;;;;;;;;6248191;23;20251;-91
2021/11/24 05:49:54;;;;;;;21.23;7.90;;;;;;;;;;6247520;23;20162;-92
2021/11/24 05:53:06;;;;;;;20.03;8.73;;;;;;;;;;6246285;22;20178;-90
2021/11/24 05:56:20;;;;;;;19.33;8.30;;;;;;;;;;6246227;22;20491;-90
2021/11/24 05:59:34;;;;;;;21.73;8.50;;;;;;;;;;6248083;23;20259;-92
2021/11/24 06:02:46;;;;;;;18.13;8.27;;;;;;;;;;6249683;23;20175;-91
2021/11/24 06:05:58;;;;;;;22.50;8.20;;;;;;;;;;6247635;23;20209;-90
2021/11/24 06:09:10;;;;;;;22.43;8.77;;;;;;;;;;6248780;22;20174;-90
2021/11/24 06:12:24;;;;;;;23.40;8.07;;;;;;;;;;6249767;22;20174;-90
2021/11/24 06:15:35;;;;;;;26.27;9.90;;;;;;;;;;6248615;23;20179;-92
2021/11/24 06:18:48;;;;;;;25.20;10.17;;;;;;;;;;6249350;23;20658;-90
2021/11/24 06:21:59;;;;;;;19.43;8.80;;;;;;;;;;6250353;22;20286;-89
2021/11/24 06:25:12;;;;;;;19.37;8.60;;;;;;;;;;6248875;22;20198;-92
2021/11/24 06:28:30;;;;;;;20.77;9.10;;;;;;;;;;6249248;22;20235;-90
2021/11/24 06:31:41;;;;;;;21.70;8.93;;;;;;;;;;6249370;23;20238;-91
2021/11/24 06:34:53;;;;;;;23.50;8.80;;;;;;;;;;6249167;23;20167;-89
2021/11/24 06:41:41;;;;;;;24.07;8.80;;;;;;;;;;6251038;22;20264;-90
2021/11/24 06:44:54;;;;;;;27.27;10.37;;;;;;;;;;6248917;22;20237;-91
2021/11/24 06:48:07;;;;;;;29.17;9.13;;;;;;;;;;6249332;23;20159;-90
2021/11/24 06:51:19;;;;;;;40.97;10.53;;;;;;;;;;6250151;23;20230;-90
2021/11/24 06:54:30;;;;;;;22.80;9.27;;;;;;;;;;6249606;22;20211;-91
2021/11/24 06:57:45;;;;;;;31.97;9.90;;;;;;;;;;6251428;23;20247;-89
2021/11/24 07:01:00;;;;;;;27.70;10.37;;;;;;;;;;6246486;23;20620;-92
2021/11/24 07:04:11;;;;;;;33.47;11.07;;;;;;;;;;6247639;23;20213;-88
2021/11/24 07:07:32;;;;;;;45.27;11.40;;;;;;;;;;6248434;22;20277;-91
2021/11/24 07:10:44;;;;;;;35.30;11.40;;;;;;;;;;6245489;23;20183;-90
2021/11/24 07:13:58;;;;;;;23.97;9.87;;;;;;;;;;6246574;23;20167;-90
2021/11/24 07:17:13;;;;;;;26.23;10.30;;;;;;;;;;6246842;23;20170;-91
2021/11/24 07:20:25;;;;;;;23.27;9.50;;;;;;;;;;6248373;22;20661;-89
2021/11/24 07:23:37;;;;;;;20.30;9.00;;;;;;;;;;6246967;23;20220;-89
2021/11/24 07:26:49;;;;;;;23.70;9.57;;;;;;;;;;6247879;23;20190;-92
2021/11/24 07:30:01;;;;;;;24.67;10.00;;;;;;;;;;6248547;23;20175;-88
2021/11/24 07:33:16;;;;;;;20.63;9.30;;;;;;;;;;6250652;22;20166;-93
2021/11/24 07:36:46;;;;;;;20.73;9.00;;;;;;;;;;6247813;23;20219;-90
2021/11/24 07:40:00;;;;;;;22.37;9.60;;;;;;;;;;6250174;23;20174;-91
2021/11/24 07:43:13;;;;;;;23.67;10.17;;;;;;;;;;6250281;22;20215;-91
2021/11/24 07:46:25;;;;;;;23.60;9.47;;;;;;;;;;6250200;22;20273;-91
2021/11/24 07:49:41;;;;;;;27.67;11.23;;;;;;;;;;6248908;22;20237;-91
2021/11/24 07:52:53;;;;;;;27.90;10.10;;;;;;;;;;6249715;22;20174;-90
2021/11/24 07:56:06;;;;;;;28.70;10.83;;;;;;;;;;6248710;22;20167;-91
2021/11/24 07:59:17;;;;;;;22.60;8.80;;;;;;;;;;6250306;23;20230;-92
2021/11/24 08:02:30;;;;;;;17.60;8.10;;;;;;;;;;6249915;22;20200;-93
2021/11/24 08:05:44;;;;;;;19.30;8.47;;;;;;;;;;6249247;22;20210;-92
2021/11/24 08:08:56;;;;;;;23.50;9.30;;;;;;;;;;6251108;23;20184;-90
2021/11/24 08:12:11;;;;;;;22.77;9.50;;;;;;;;;;6250024;22;20170;-90
2021/11/24 08:15:24;;;;;;;26.27;8.47;;;;;;;;;;6252732;22;20166;-91
2021/11/24 08:18:36;;;;;;;20.73;9.70;;;;;;;;;;6232360;22;20166;-92
2021/11/24 23:39:29;;;;;;;36.27;9.87;;;;;;;;;;6176563;22;20215;-89
2021/11/24 23:42:41;;;;;;;26.60;10.17;;;;;;;;;;6233133;23;20172;-89
2021/11/24 23:45:53;;;;;;;42.67;10.30;;;;;;;;;;6232540;23;20195;-89
2021/11/24 23:49:05;;;;;;;37.73;9.60;;;;;;;;;;6232718;23;20207;-89
2021/11/24 23:52:18;;;;;;;24.07;9.97;;;;;;;;;;6231013;23;20226;-88
2021/11/24 23:55:32;;;;;;;35.37;9.97;;;;;;;;;;6249534;23;20159;-90
2021/11/24 23:58:44;;;;;;;38.47;10.93;;;;;;;;;;6232526;23;20214;-88
